Time;durP1;ratioP1;P1;durP2;ratioP2;P2;SDS_P1;SDS_P2;PMS_P1;PMS_P2;Temp;Humidity;BMP_temperature;BMP_pressure;BME280_temperature;BME280_humidity;BME280_pressure;Samples;Min_cycle;Max_cycle;Signal;HPM_P1;HPM_P2
2022/01/11 00:01:29;;;;;;;;;27.25;24.00;;;;;7.88;70.56;102628.25;5039784;28;45792;-72
2022/01/11 00:03:55;;;;;;;;;30.00;24.75;;;;;7.88;70.73;102630.88;5057482;28;45613;-72
2022/01/11 00:06:30;;;;;;;;;31.00;26.25;;;;;7.88;70.24;102639.69;5039775;28;45288;-73
2022/01/11 00:09:00;;;;;;;;;32.00;24.00;;;;;7.84;70.49;102619.31;5057455;28;45207;-74
2022/01/11 00:11:26;;;;;;;;;29.50;22.75;;;;;7.87;70.42;102634.34;5057951;28;45544;-75
2022/01/11 00:13:52;;;;;;;;;30.50;26.00;;;;;7.86;71.14;102638.69;5056902;28;46271;-72
2022/01/11 00:16:17;;;;;;;;;34.00;25.00;;;;;7.86;70.42;102635.19;5057123;28;45483;-72
2022/01/11 00:18:42;;;;;;;;;36.50;26.75;;;;;7.86;70.55;102635.19;5058204;28;45675;-74
2022/01/11 00:21:08;;;;;;;;;38.25;26.00;;;;;7.81;70.90;102629.69;5057812;28;45299;-72
2022/01/11 00:25:59;;;;;;;;;28.75;25.50;;;;;7.86;70.71;102643.06;5057089;28;45454;-72
2022/01/11 00:28:25;;;;;;;;;35.25;29.00;;;;;7.78;70.78;102626.00;5061013;28;45698;-74
2022/01/11 00:30:51;;;;;;;;;24.75;21.75;;;;;7.79;70.83;102628.72;5058074;28;45524;-72
2022/01/11 00:33:21;;;;;;;;;28.00;24.00;;;;;7.84;70.59;102636.84;5039350;28;45444;-72
2022/01/11 00:35:57;;;;;;;;;37.25;24.00;;;;;7.84;70.54;102645.63;5056819;28;45457;-73
2022/01/11 00:38:29;;;;;;;;;31.00;24.50;;;;;7.80;70.58;102638.41;5057535;28;45483;-72
2022/01/11 00:40:56;;;;;;;;;29.00;22.50;;;;;7.80;70.75;102640.13;5040223;28;45308;-72
2022/01/11 00:43:25;;;;;;;;;28.00;20.00;;;;;7.80;70.63;102645.38;5055030;28;45653;-75
2022/01/11 00:45:51;;;;;;;;;27.00;22.75;;;;;7.78;70.40;102647.94;5035796;28;45435;-72
2022/01/11 00:48:17;;;;;;;;;28.25;24.25;;;;;7.71;70.31;102626.50;5050181;28;45369;-73
2022/01/11 00:50:45;;;;;;;;;36.25;26.75;;;;;7.70;70.22;102637.84;5057639;28;45521;-73
2022/01/11 00:53:10;;;;;;;;;25.00;21.00;;;;;7.72;70.28;102636.19;5057437;28;45382;-73
2022/01/11 00:55:36;;;;;;;;;25.25;20.50;;;;;7.71;70.42;102639.66;5056032;28;45327;-73
2022/01/11 00:58:02;;;;;;;;;28.50;23.50;;;;;7.71;70.61;102647.53;5057110;28;45439;-73
2022/01/11 01:00:29;;;;;;;;;27.00;21.75;;;;;7.71;70.59;102644.91;5056071;28;45856;-73
2022/01/11 01:02:54;;;;;;;;;32.50;24.50;;;;;7.71;70.71;102650.16;5057401;28;45231;-73
2022/01/11 01:05:21;;;;;;;;;28.50;22.25;;;;;7.67;70.64;102643.88;5055565;28;52658;-73
2022/01/11 01:07:46;;;;;;;;;36.50;26.25;;;;;7.71;71.03;102653.69;5056968;28;45312;-73
2022/01/11 01:10:25;;;;;;;;;27.75;18.75;;;;;7.69;71.09;102638.69;5056651;28;45293;-73
2022/01/11 01:12:51;;;;;;;;;27.25;23.00;;;;;7.69;70.99;102636.03;5055838;28;46417;-73
2022/01/11 01:15:18;;;;;;;;;28.00;19.75;;;;;7.72;70.68;102655.50;5056073;28;45339;-73
2022/01/11 01:17:43;;;;;;;;;32.00;26.50;;;;;7.72;70.71;102654.59;5039212;28;45162;-73
2022/01/11 01:20:09;;;;;;;;;27.75;23.75;;;;;7.70;71.04;102657.16;5056182;28;45426;-73
2022/01/11 01:22:34;;;;;;;;;25.75;24.75;;;;;7.70;69.77;102667.66;5056014;28;45284;-73
2022/01/11 01:25:02;;;;;;;;;33.25;29.50;;;;;7.69;70.41;102665.88;5055799;28;57140;-73
2022/01/11 01:27:28;;;;;;;;;30.25;23.75;;;;;7.68;71.34;102664.06;5039016;28;45484;-73
2022/01/11 01:29:53;;;;;;;;;30.25;22.00;;;;;7.68;70.53;102668.44;5061477;28;45572;-72
2022/01/11 01:32:19;;;;;;;;;26.25;22.00;;;;;7.69;70.68;102667.59;5056272;28;53186;-72
2022/01/11 01:34:44;;;;;;;;;21.25;19.25;;;;;7.69;70.49;102657.97;5055745;28;54328;-73
2022/01/11 01:37:12;;;;;;;;;19.75;19.25;;;;;7.71;70.78;102671.19;5056485;28;45282;-73
2022/01/11 01:39:37;;;;;;;;;23.50;19.25;;;;;7.71;70.94;102668.56;5056270;28;45871;-73
2022/01/11 01:42:04;;;;;;;;;24.25;20.00;;;;;7.71;70.85;102674.72;5037303;28;62202;-75
2022/01/11 01:44:30;;;;;;;;;20.50;20.00;;;;;7.72;71.11;102673.91;5057206;28;45198;-73
2022/01/11 01:46:56;;;;;;;;;33.25;25.00;;;;;7.68;70.69;102674.59;5057158;28;45433;-73
2022/01/11 01:49:23;;;;;;;;;24.00;19.75;;;;;7.67;69.97;102664.91;5058169;28;45373;-73
2022/01/11 01:51:49;;;;;;;;;28.25;19.50;;;;;7.70;70.68;102680.81;5058052;28;45575;-74
2022/01/11 01:54:14;;;;;;;;;28.00;22.75;;;;;7.66;70.46;102670.06;5038262;28;59754;-73
2022/01/11 01:56:46;;;;;;;;;27.00;20.25;;;;;7.69;70.37;102686.91;5055023;28;45486;-73
2022/01/11 01:59:14;;;;;;;;;30.25;20.00;;;;;7.70;70.58;102687.81;5039076;28;45555;-73
2022/01/11 02:01:46;;;;;;;;;32.00;25.25;;;;;7.67;70.63;102688.56;5055436;28;47219;-73
2022/01/11 02:04:19;;;;;;;;;32.25;24.25;;;;;7.70;70.42;102693.06;5038568;28;45566;-73
2022/01/11 02:06:45;;;;;;;;;26.75;19.25;;;;;7.71;70.30;102695.75;5020134;28;45585;-73
2022/01/11 02:09:11;;;;;;;;;29.50;23.00;;;;;7.71;70.40;102694.84;5056133;28;45147;-72
2022/01/11 02:11:39;;;;;;;;;30.50;27.75;;;;;7.72;70.55;102694.94;5037434;28;46282;-73
2022/01/11 02:14:05;;;;;;;;;33.25;25.50;;;;;7.72;70.63;102694.94;5036839;28;54851;-72
2022/01/11 02:16:30;;;;;;;;;28.75;23.25;;;;;7.73;70.37;102701.13;5037623;28;45983;-73
2022/01/11 02:18:56;;;;;;;;;28.50;23.50;;;;;7.73;70.48;102699.41;5055954;28;50752;-75
2022/01/11 02:21:21;;;;;;;;;25.75;17.00;;;;;7.71;70.53;102694.84;5054415;28;57774;-74
2022/01/11 02:23:46;;;;;;;;;31.25;21.00;;;;;7.69;70.99;102691.25;5054656;28;45209;-72
2022/01/11 02:26:12;;;;;;;;;30.00;24.50;;;;;7.73;70.74;102699.41;5055532;28;45363;-73
2022/01/11 02:28:37;;;;;;;;;27.75;22.25;;;;;7.71;70.36;102697.50;5055877;28;50957;-73
2022/01/11 02:31:07;;;;;;;;;31.75;24.75;;;;;7.72;70.11;102700.19;5036944;28;45867;-73
2022/01/11 02:33:44;;;;;;;;;36.00;23.00;;;;;7.68;70.32;102697.34;5055806;28;45449;-73
2022/01/11 02:36:20;;;;;;;;;33.50;28.25;;;;;7.73;70.43;102714.28;5054771;28;45292;-73
2022/01/11 02:38:46;;;;;;;;;38.75;27.00;;;;;7.74;70.48;102708.19;5058062;28;45565;-73
2022/01/11 02:41:12;;;;;;;;;32.00;26.75;;;;;7.75;70.47;102705.63;5057809;28;46156;-73
2022/01/11 02:43:46;;;;;;;;;32.50;25.50;;;;;7.76;70.44;102702.16;5058963;28;46082;-73
2022/01/11 02:46:11;;;;;;;;;42.75;29.25;;;;;7.76;70.52;102698.63;5058897;28;45362;-73
2022/01/11 02:48:37;;;;;;;;;39.75;30.00;;;;;7.76;70.42;102696.00;5058654;28;45446;-76
2022/01/11 02:51:03;;;;;;;;;42.50;34.50;;;;;7.74;70.22;102701.19;5058467;28;46801;-76
2022/01/11 02:53:29;;;;;;;;;40.25;30.50;;;;;7.77;69.93;102698.69;5058426;28;45285;-73
2022/01/11 02:55:54;;;;;;;;;41.25;32.25;;;;;7.76;70.21;102709.16;5058342;28;54736;-73
2022/01/11 02:58:20;;;;;;;;;30.75;28.50;;;;;7.74;70.01;102710.81;5059321;28;45445;-73
2022/01/11 03:00:45;;;;;;;;;35.25;27.50;;;;;7.73;70.22;102704.66;5057342;28;58908;-73
2022/01/11 03:03:17;;;;;;;;;42.75;30.25;;;;;7.72;70.20;102708.06;5040256;28;59692;-74
2022/01/11 03:05:46;;;;;;;;;36.50;25.00;;;;;7.71;70.20;102706.28;5059060;28;45331;-73
2022/01/11 03:08:13;;;;;;;;;39.00;33.50;;;;;7.72;70.54;102707.19;5059270;28;45318;-74
2022/01/11 03:10:38;;;;;;;;;43.75;36.00;;;;;7.71;69.93;102715.91;5058176;28;47973;-73
2022/01/11 03:13:04;;;;;;;;;50.75;35.50;;;;;7.70;70.43;102708.84;5040306;28;45303;-73
2022/01/11 03:15:30;;;;;;;;;33.25;31.25;;;;;7.68;69.84;102707.88;5040870;28;45446;-74
2022/01/11 03:17:55;;;;;;;;;42.50;33.00;;;;;7.66;70.37;102709.47;5057745;28;57063;-73
2022/01/11 03:20:21;;;;;;;;;44.50;33.00;;;;;7.58;70.19;102702.09;5039857;28;46245;-73
2022/01/11 03:22:46;;;;;;;;;41.25;34.75;;;;;7.66;70.26;102712.13;5058553;28;45266;-73
2022/01/11 03:25:12;;;;;;;;;44.00;35.50;;;;;7.60;70.57;102702.19;5058584;28;45398;-76
2022/01/11 03:27:38;;;;;;;;;36.50;27.50;;;;;7.66;70.26;102710.38;5061266;28;45399;-73
2022/01/11 03:30:04;;;;;;;;;43.25;30.25;;;;;7.66;70.28;102723.53;5062663;28;47549;-75
2022/01/11 03:32:30;;;;;;;;;29.50;28.25;;;;;7.64;70.24;102735.72;5057550;28;45568;-73
2022/01/11 03:34:55;;;;;;;;;40.00;30.50;;;;;7.62;70.05;102740.00;5057074;28;56452;-73
2022/01/11 03:37:20;;;;;;;;;42.25;32.25;;;;;7.60;70.00;102734.63;5058880;28;45138;-73
2022/01/11 03:39:47;;;;;;;;;47.00;32.25;;;;;7.59;70.32;102734.56;5057783;28;46249;-73
2022/01/11 03:42:12;;;;;;;;;29.00;23.75;;;;;7.52;70.04;102709.69;5058164;28;45364;-73
2022/01/11 03:44:38;;;;;;;;;29.25;24.50;;;;;7.53;69.92;102713.19;5057803;28;45450;-74
2022/01/11 03:47:03;;;;;;;;;32.00;26.25;;;;;7.57;70.33;102725.69;5057008;28;55500;-73
2022/01/11 03:49:29;;;;;;;;;35.75;29.25;;;;;7.55;69.85;102727.31;5055585;28;45457;-73
2022/01/11 03:51:55;;;;;;;;;36.50;27.25;;;;;7.49;69.65;102727.88;5057223;28;52339;-73
2022/01/11 03:54:27;;;;;;;;;32.50;25.50;;;;;7.50;69.71;102731.41;5057210;28;45412;-75
2022/01/11 03:56:52;;;;;;;;;33.00;28.25;;;;;7.51;69.75;102730.59;5058067;28;45308;-73
2022/01/11 03:59:18;;;;;;;;;30.50;26.00;;;;;7.49;69.67;102738.41;5057622;28;45512;-76
2022/01/11 04:01:43;;;;;;;;;36.75;26.50;;;;;7.48;69.55;102738.34;5040276;28;45557;-73
2022/01/11 04:04:09;;;;;;;;;35.00;31.00;;;;;7.37;69.16;102734.22;5057412;28;45419;-72
2022/01/11 04:06:35;;;;;;;;;36.00;27.25;;;;;7.42;69.37;102743.25;5057137;28;45463;-76
2022/01/11 04:09:01;;;;;;;;;35.50;27.25;;;;;7.41;69.06;102733.56;5057627;28;46256;-73
2022/01/11 04:11:27;;;;;;;;;30.25;28.75;;;;;7.38;69.69;102734.28;5057864;28;45301;-73
2022/01/11 04:13:52;;;;;;;;;31.75;27.00;;;;;7.38;69.77;102726.41;5039446;28;56107;-75
2022/01/11 04:16:17;;;;;;;;;32.25;26.00;;;;;7.36;69.66;102728.06;5039522;28;45147;-72
2022/01/11 04:18:43;;;;;;;;;38.50;27.75;;;;;7.35;69.56;102721.00;5056130;28;65375;-73
2022/01/11 04:21:08;;;;;;;;;34.25;28.00;;;;;7.34;69.09;102720.06;5056563;28;48997;-73
2022/01/11 04:23:34;;;;;;;;;32.75;27.50;;;;;7.28;69.38;102725.00;5057260;28;45449;-73
2022/01/11 04:26:00;;;;;;;;;40.75;28.50;;;;;7.26;69.02;102726.66;5039171;28;45510;-75
2022/01/11 04:28:27;;;;;;;;;30.00;23.50;;;;;7.29;69.32;102745.19;5040159;28;46307;-73
2022/01/11 04:30:53;;;;;;;;;26.25;19.50;;;;;7.29;69.24;102737.31;5057448;28;45482;-73
2022/01/11 04:33:19;;;;;;;;;23.00;21.00;;;;;7.20;69.52;102728.06;5057833;28;45465;-74
2022/01/11 04:35:48;;;;;;;;;29.50;24.75;;;;;7.18;68.92;102732.28;5056643;28;45837;-75
2022/01/11 04:38:16;;;;;;;;;32.25;23.25;;;;;7.23;69.26;102741.34;5056941;28;46501;-73
2022/01/11 04:40:41;;;;;;;;;30.50;22.50;;;;;7.23;69.43;102741.34;5057132;28;45491;-76
2022/01/11 04:43:07;;;;;;;;;22.75;20.00;;;;;7.20;69.43;102741.19;5057131;28;53026;-73
2022/01/11 04:45:32;;;;;;;;;32.25;26.25;;;;;7.18;68.99;102740.19;5056184;28;45605;-73
2022/01/11 04:47:57;;;;;;;;;39.00;24.75;;;;;7.16;69.39;102749.72;5056025;28;46806;-73
2022/01/11 04:50:25;;;;;;;;;31.75;24.25;;;;;7.13;69.38;102760.94;5056879;28;45442;-73
2022/01/11 04:52:50;;;;;;;;;25.00;23.75;;;;;7.13;69.40;102763.56;5057692;28;45359;-74
2022/01/11 04:55:17;;;;;;;;;33.50;26.50;;;;;7.13;69.41;102774.06;5056789;28;45479;-73
2022/01/11 04:57:42;;;;;;;;;33.75;26.75;;;;;7.14;69.59;102774.97;5055596;28;58237;-73
2022/01/11 05:00:08;;;;;;;;;31.00;22.75;;;;;7.14;69.52;102778.53;5055066;28;60013;-73
2022/01/11 05:02:34;;;;;;;;;27.25;24.50;;;;;7.14;68.94;102767.09;5056939;28;45457;-75
2022/01/11 05:04:59;;;;;;;;;33.00;25.00;;;;;7.10;69.27;102771.28;5057278;28;45438;-73
2022/01/11 05:07:25;;;;;;;;;33.00;28.25;;;;;7.12;69.26;102774.88;5056212;28;63754;-74
2022/01/11 05:09:51;;;;;;;;;39.00;28.25;;;;;7.11;68.88;102778.34;5056385;28;45398;-73
2022/01/11 05:12:16;;;;;;;;;32.25;26.25;;;;;7.12;69.13;102767.00;5057320;28;45149;-73
2022/01/11 05:14:42;;;;;;;;;32.25;24.25;;;;;7.12;69.66;102779.25;5056593;28;56271;-75
2022/01/11 05:17:07;;;;;;;;;39.75;31.75;;;;;7.11;69.43;102780.97;5056152;28;45767;-75
2022/01/11 05:19:33;;;;;;;;;36.50;28.25;;;;;7.13;69.46;102776.69;5053643;28;56774;-72
2022/01/11 05:21:58;;;;;;;;;32.75;31.25;;;;;7.13;69.66;102774.06;5056006;28;55688;-73
2022/01/11 05:24:23;;;;;;;;;33.75;29.00;;;;;7.17;69.25;102777.78;5057295;28;45366;-75
2022/01/11 05:26:49;;;;;;;;;28.25;24.00;;;;;7.16;69.52;102774.25;5056683;28;58353;-73
2022/01/11 05:29:14;;;;;;;;;35.25;27.25;;;;;7.17;69.25;102780.41;5056914;28;59471;-75
2022/01/11 05:31:39;;;;;;;;;36.50;27.25;;;;;7.15;69.45;102780.31;5050875;28;45658;-74
2022/01/11 05:34:05;;;;;;;;;39.75;28.25;;;;;7.15;69.30;102785.59;5054124;28;53559;-74
2022/01/11 05:36:30;;;;;;;;;32.50;27.50;;;;;7.12;69.10;102780.16;5056478;28;46222;-74
2022/01/11 05:38:56;;;;;;;;;33.75;26.50;;;;;7.08;69.18;102780.78;5054817;28;62622;-75
2022/01/11 05:41:21;;;;;;;;;35.75;29.25;;;;;7.03;69.15;102777.94;5055868;28;50075;-76
2022/01/11 05:43:47;;;;;;;;;34.50;26.50;;;;;7.00;68.95;102792.59;5056120;28;45600;-75
2022/01/11 05:46:12;;;;;;;;;29.75;21.50;;;;;6.97;69.43;102805.53;5055672;28;45878;-75
2022/01/11 05:48:37;;;;;;;;;39.25;25.75;;;;;6.93;69.10;102806.19;5037698;28;45410;-76
2022/01/11 05:51:03;;;;;;;;;36.50;30.25;;;;;6.92;69.12;102807.00;5056177;28;56363;-76
2022/01/11 05:53:28;;;;;;;;;39.50;33.25;;;;;6.82;69.21;102800.34;5055371;28;45363;-77
2022/01/11 05:55:54;;;;;;;;;36.25;31.50;;;;;6.79;69.13;102808.00;5055306;28;47267;-76
2022/01/11 05:58:19;;;;;;;;;32.50;27.75;;;;;6.75;69.37;102809.56;5035289;28;56748;-74
2022/01/11 06:00:44;;;;;;;;;43.00;35.75;;;;;6.70;69.48;102813.63;5054192;28;57247;-75
2022/01/11 06:03:10;;;;;;;;;34.50;27.50;;;;;6.60;69.72;102807.75;5053967;28;47349;-77
2022/01/11 06:05:38;;;;;;;;;42.50;32.75;;;;;6.64;69.48;102825.50;5055475;28;52986;-76
2022/01/11 06:08:05;;;;;;;;;33.50;26.50;;;;;6.59;69.79;102805.94;5051169;28;45533;-74
2022/01/11 06:10:30;;;;;;;;;37.25;23.25;;;;;6.62;69.90;102824.50;5056280;28;45399;-74
2022/01/11 06:12:55;;;;;;;;;47.75;33.75;;;;;6.61;69.62;102822.72;5057302;28;54506;-74
2022/01/11 06:15:21;;;;;;;;;35.25;25.25;;;;;6.60;69.61;102823.50;5054953;28;63718;-75
2022/01/11 06:17:46;;;;;;;;;33.50;28.50;;;;;6.60;69.90;102834.91;5039913;28;45577;-76
2022/01/11 06:20:12;;;;;;;;;42.25;31.50;;;;;6.59;69.74;102833.09;5054126;28;51984;-75
2022/01/11 06:22:37;;;;;;;;;46.75;34.00;;;;;6.57;69.69;102830.38;5058129;28;45373;-77
2022/01/11 06:25:03;;;;;;;;;37.75;29.25;;;;;6.52;69.72;102831.84;5057674;28;47228;-74
2022/01/11 06:27:30;;;;;;;;;37.25;33.75;;;;;6.57;69.86;102842.59;5036924;28;45240;-74
2022/01/11 06:29:55;;;;;;;;;39.00;30.25;;;;;6.58;69.48;102839.16;5057163;28;45418;-73
2022/01/11 06:32:20;;;;;;;;;46.00;34.25;;;;;6.61;69.86;102846.34;5055926;28;45422;-75
2022/01/11 06:34:46;;;;;;;;;36.50;27.75;;;;;6.60;68.22;102845.41;5057284;28;54762;-74
2022/01/11 06:37:12;;;;;;;;;44.25;32.00;;;;;6.44;66.89;102838.31;5053574;28;45502;-77
2022/01/11 06:39:37;;;;;;;;;39.75;30.50;;;;;6.23;66.93;102845.84;5057995;28;45430;-74
2022/01/11 06:42:04;;;;;;;;;36.50;29.50;;;;;6.07;67.46;102850.03;5057584;28;45547;-75
2022/01/11 06:44:29;;;;;;;;;27.00;24.00;;;;;5.89;67.96;102842.81;5058175;28;47039;-74
2022/01/11 06:46:54;;;;;;;;;41.00;30.00;;;;;5.71;68.39;102847.81;5037417;28;57319;-74
2022/01/11 06:49:20;;;;;;;;;40.75;29.25;;;;;5.69;69.13;102852.03;5053115;28;50903;-76
2022/01/11 06:51:45;;;;;;;;;34.25;28.00;;;;;5.66;69.02;102838.75;5055297;28;53057;-74
2022/01/11 06:54:11;;;;;;;;;39.50;32.25;;;;;5.65;69.28;102836.94;5054498;28;61613;-76
2022/01/11 06:56:36;;;;;;;;;41.50;33.75;;;;;5.66;69.38;102845.72;5056115;28;58721;-75
2022/01/11 06:59:01;;;;;;;;;40.75;31.75;;;;;5.67;69.79;102843.19;5052293;28;45857;-75
2022/01/11 07:01:27;;;;;;;;;40.25;31.50;;;;;5.69;69.83;102849.41;5056302;28;45542;-75
2022/01/11 07:03:52;;;;;;;;;38.25;28.50;;;;;5.69;69.89;102857.28;5054856;28;46496;-75
2022/01/11 07:06:18;;;;;;;;;41.25;30.75;;;;;5.72;70.16;102861.81;5051818;28;45505;-75
2022/01/11 07:08:43;;;;;;;;;50.50;37.75;;;;;5.69;69.71;102849.41;5057058;28;52412;-75
2022/01/11 07:11:11;;;;;;;;;42.75;33.25;;;;;5.74;70.24;102854.94;5054638;28;45612;-75
2022/01/11 07:13:36;;;;;;;;;46.00;32.50;;;;;5.76;69.97;102851.63;5039241;28;45925;-74
2022/01/11 07:16:02;;;;;;;;;39.25;31.00;;;;;5.76;70.32;102861.22;5056491;28;55760;-75
2022/01/11 07:18:33;;;;;;;;;37.50;33.75;;;;;5.78;70.18;102857.88;5055881;28;46988;-75
2022/01/11 07:20:59;;;;;;;;;56.00;35.75;;;;;5.73;70.19;102864.53;5056997;28;45490;-75
2022/01/11 07:23:24;;;;;;;;;41.50;33.75;;;;;5.70;70.06;102859.13;5054863;28;61337;-75
2022/01/11 07:25:49;;;;;;;;;46.25;36.75;;;;;5.77;70.52;102873.50;5057137;28;45431;-74
2022/01/11 07:28:15;;;;;;;;;46.50;28.75;;;;;5.77;70.24;102881.38;5046396;28;55719;-74
2022/01/11 07:30:41;;;;;;;;;43.00;33.50;;;;;5.79;70.18;102883.25;5056832;28;45392;-74
2022/01/11 07:33:07;;;;;;;;;41.75;31.00;;;;;5.82;70.31;102885.19;5052558;28;45588;-76
2022/01/11 07:35:33;;;;;;;;;47.00;31.50;;;;;5.81;70.36;102880.75;5053816;28;57495;-75
2022/01/11 07:37:58;;;;;;;;;39.75;32.50;;;;;5.88;70.26;102896.06;5056725;28;45370;-75
2022/01/11 07:40:23;;;;;;;;;35.25;29.50;;;;;5.93;70.47;102914.72;5056770;28;50727;-74
2022/01/11 07:42:49;;;;;;;;;52.25;35.75;;;;;5.96;69.98;102909.66;5055759;28;45946;-74
2022/01/11 07:45:14;;;;;;;;;49.75;29.75;;;;;5.98;70.13;102902.81;5053669;28;45473;-74
2022/01/11 07:47:40;;;;;;;;;50.25;36.50;;;;;6.01;70.02;102911.75;5044079;28;45494;-74
2022/01/11 07:50:06;;;;;;;;;48.75;35.50;;;;;6.05;70.12;102912.88;5060531;28;54564;-74
2022/01/11 07:52:32;;;;;;;;;42.00;34.00;;;;;6.07;70.16;102903.38;5059296;28;46743;-75
2022/01/11 07:54:57;;;;;;;;;49.75;36.00;;;;;6.09;69.55;102906.13;5043669;28;45632;-76
2022/01/11 07:57:23;;;;;;;;;43.50;33.75;;;;;6.04;69.63;102905.81;5056263;28;45440;-77
2022/01/11 07:59:48;;;;;;;;;41.75;32.00;;;;;6.02;69.85;102910.97;5050419;28;45496;-76
2022/01/11 08:02:13;;;;;;;;;45.50;32.25;;;;;5.99;69.92;102913.41;5037832;28;46166;-75
2022/01/11 08:04:39;;;;;;;;;42.75;32.75;;;;;5.98;69.95;102916.84;5043644;28;46392;-76
2022/01/11 08:07:04;;;;;;;;;32.50;30.25;;;;;5.98;69.43;102922.06;5055626;28;56677;-76
2022/01/11 08:09:42;;;;;;;;;46.75;38.75;;;;;5.98;69.94;102934.28;5054189;28;45703;-75
2022/01/11 08:12:08;;;;;;;;;43.00;33.00;;;;;5.97;69.65;102936.00;5030836;28;48101;-76
2022/01/11 08:14:34;;;;;;;;;43.75;36.00;;;;;6.00;69.53;102933.56;5036425;28;45499;-77
2022/01/11 08:17:00;;;;;;;;;50.25;32.25;;;;;6.01;69.68;102932.75;5038615;28;53027;-79
2022/01/11 08:19:28;;;;;;;;;43.00;33.25;;;;;6.03;69.75;102948.59;5055015;28;45482;-79
2022/01/11 08:21:56;;;;;;;;;45.00;31.00;;;;;6.01;69.94;102950.19;5033687;28;46333;-75
2022/01/11 08:24:23;;;;;;;;;50.75;31.00;;;;;5.99;70.05;102942.25;5020470;28;45558;-77
2022/01/11 08:26:49;;;;;;;;;47.00;36.00;;;;;6.01;69.74;102951.09;5054790;28;45526;-77
2022/01/11 08:29:14;;;;;;;;;50.75;37.50;;;;;5.99;69.73;102950.09;5037079;28;45434;-77
2022/01/11 08:31:40;;;;;;;;;52.50;35.25;;;;;6.10;69.71;102966.53;5036287;28;46504;-76
2022/01/11 08:34:11;;;;;;;;;38.25;37.25;;;;;6.13;69.37;102965.81;5053322;28;45577;-77
2022/01/11 08:36:37;;;;;;;;;42.50;34.50;;;;;6.14;69.22;102973.78;5049821;28;45551;-77
2022/01/11 08:39:05;;;;;;;;;44.50;35.00;;;;;6.17;69.58;102966.09;5019929;28;45690;-78
2022/01/11 08:41:33;;;;;;;;;57.50;40.25;;;;;6.18;69.20;102967.00;5053484;28;47101;-75
2022/01/11 08:44:02;;;;;;;;;36.00;32.50;;;;;6.18;69.45;102962.69;5033573;28;45503;-75
2022/01/11 08:46:27;;;;;;;;;49.25;34.00;;;;;6.24;69.52;102970.94;5019928;28;45484;-76
2022/01/11 08:49:17;;;;;;;;;53.50;39.50;;;;;6.26;69.42;102971.94;5036335;28;45344;-77
2022/01/11 08:51:54;;;;;;;;;52.25;40.50;;;;;6.34;69.41;102971.47;5037093;28;45538;-76
2022/01/11 08:54:24;;;;;;;;;50.00;42.00;;;;;6.34;69.27;102971.47;5047165;28;45498;-76
2022/01/11 08:56:52;;;;;;;;;52.25;37.75;;;;;6.36;69.07;102968.16;5053721;28;45520;-75
2022/01/11 08:59:17;;;;;;;;;53.00;41.75;;;;;6.36;69.00;102964.63;5037460;28;45771;-76
2022/01/11 09:01:42;;;;;;;;;55.50;41.00;;;;;6.39;69.07;102964.81;5055398;28;46614;-76
2022/01/11 09:04:08;;;;;;;;;47.75;42.50;;;;;6.35;69.15;102957.59;5055754;28;47015;-76
2022/01/11 09:06:33;;;;;;;;;48.75;41.00;;;;;6.39;68.90;102959.56;5054974;28;45692;-78
2022/01/11 09:08:59;;;;;;;;;48.75;40.75;;;;;6.37;69.17;102962.09;5055513;28;52297;-76
2022/01/11 09:11:24;;;;;;;;;51.75;39.75;;;;;6.39;69.00;102965.75;5019969;28;46553;-76
2022/01/11 09:13:50;;;;;;;;;54.50;39.25;;;;;6.44;69.04;102968.63;5054356;28;55635;-77
2022/01/11 09:16:17;;;;;;;;;47.75;38.50;;;;;6.47;68.97;102967.09;5055922;28;46054;-77
2022/01/11 09:18:43;;;;;;;;;62.25;42.50;;;;;6.56;69.21;102972.03;5055391;28;45625;-76
2022/01/11 09:21:08;;;;;;;;;56.50;38.00;;;;;6.62;69.05;102982.00;5181766;22;45793;-77
2022/01/11 09:23:35;;;;;;;;;47.25;38.75;;;;;6.64;68.85;102968.13;5093193;27;48858;-75
2022/01/11 09:26:00;;;;;;;;;49.50;40.00;;;;;6.64;68.80;102965.50;5092374;27;45459;-75
2022/01/11 09:28:25;;;;;;;;;47.75;38.75;;;;;6.62;68.05;102980.28;5092302;27;45516;-76
2022/01/11 09:30:51;;;;;;;;;42.00;36.50;;;;;6.53;68.04;102980.59;5109668;27;62141;-75
2022/01/11 09:33:16;;;;;;;;;54.00;40.00;;;;;6.48;68.54;102976.78;5093014;27;57109;-77
2022/01/11 09:35:45;;;;;;;;;46.00;34.50;;;;;6.54;68.51;102989.38;5087521;27;46330;-75
2022/01/11 09:38:10;;;;;;;;;48.25;40.75;;;;;6.52;68.57;102985.78;5105228;27;45497;-75
2022/01/11 09:40:36;;;;;;;;;57.75;41.75;;;;;6.49;68.67;102994.34;5105426;27;57545;-75
2022/01/11 09:43:01;;;;;;;;;45.00;39.00;;;;;6.49;68.86;102994.34;5107947;27;59684;-76
2022/01/11 09:45:26;;;;;;;;;55.25;41.00;;;;;6.50;68.61;103000.53;5106678;27;56297;-75
2022/01/11 09:47:52;;;;;;;;;59.00;44.50;;;;;6.45;68.70;102981.88;5113868;27;45648;-75
2022/01/11 09:50:17;;;;;;;;;49.50;42.75;;;;;6.49;68.33;102993.44;5108726;27;47232;-76
2022/01/11 09:52:43;;;;;;;;;57.75;39.00;;;;;6.47;68.56;102997.69;5091887;27;45272;-75
2022/01/11 09:55:10;;;;;;;;;56.25;42.00;;;;;6.42;68.66;102994.78;5116420;27;45987;-74
2022/01/11 09:57:36;;;;;;;;;55.25;41.25;;;;;6.42;69.09;102993.88;5110048;27;45372;-74
2022/01/11 10:00:01;;;;;;;;;56.25;42.75;;;;;6.44;68.80;103007.97;5114577;27;46627;-77
2022/01/11 10:02:26;;;;;;;;;59.75;42.75;;;;;6.42;68.75;103007.91;5109678;27;45426;-75
2022/01/11 10:04:56;;;;;;;;;61.25;44.75;;;;;6.42;68.91;103005.28;5094532;27;56160;-77
2022/01/11 10:07:34;;;;;;;;;61.25;44.00;;;;;6.40;68.83;103008.63;5110461;27;45505;-75
2022/01/11 10:09:59;;;;;;;;;51.50;41.25;;;;;6.40;68.37;103004.28;5095317;27;46962;-77
2022/01/11 10:12:26;;;;;;;;;61.50;43.25;;;;;6.35;68.53;103003.09;5108538;27;45522;-76
2022/01/11 10:14:53;;;;;;;;;58.75;43.75;;;;;6.37;68.90;103013.66;5097094;27;45380;-77
2022/01/11 10:17:29;;;;;;;;;60.00;42.50;;;;;6.36;68.67;103011.88;5108551;27;45679;-76
2022/01/11 10:20:12;;;;;;;;;56.00;41.75;;;;;6.35;68.76;103013.59;5093330;27;46608;-75
2022/01/11 10:22:46;;;;;;;;;56.50;43.75;;;;;6.45;68.67;103023.84;5109149;27;45555;-75
2022/01/11 10:25:11;;;;;;;;;58.75;45.50;;;;;6.47;68.66;103022.22;5112565;27;45544;-76
2022/01/11 10:27:37;;;;;;;;;61.25;42.75;;;;;6.45;68.69;103020.31;5089330;27;50879;-77
2022/01/11 10:30:14;;;;;;;;;64.25;51.00;;;;;6.49;67.56;103032.81;5107755;27;46487;-77
2022/01/11 10:32:49;;;;;;;;;59.75;44.00;;;;;6.48;68.39;103031.91;5110821;27;45362;-81
2022/01/11 10:35:26;;;;;;;;;53.50;42.00;;;;;6.48;68.45;103031.00;5062141;27;46841;-80
2022/01/11 10:38:00;;;;;;;;;60.25;43.25;;;;;6.48;68.39;103028.38;5093087;27;45531;-77
2022/01/11 10:40:34;;;;;;;;;55.50;46.50;;;;;6.51;68.02;103039.06;5111677;27;45477;-76
2022/01/11 10:43:26;;;;;;;;;54.25;45.50;;;;;6.48;68.33;103036.25;5086602;27;45513;-74
2022/01/11 10:45:58;;;;;;;;;62.75;45.25;;;;;6.50;68.53;103046.03;5111064;27;45623;-75
2022/01/11 10:48:25;;;;;;;;;62.25;45.25;;;;;6.52;68.57;103030.38;5096386;27;45417;-74
2022/01/11 10:50:55;;;;;;;;;62.25;46.00;;;;;6.52;68.38;103033.00;5109255;27;45974;-75
2022/01/11 10:53:25;;;;;;;;;58.00;45.00;;;;;6.55;68.54;103035.81;5111646;27;45491;-76
2022/01/11 10:55:59;;;;;;;;;71.00;50.50;;;;;6.62;68.18;103039.75;5084865;27;45732;-75
2022/01/11 10:58:25;;;;;;;;;68.00;48.50;;;;;6.56;68.19;103019.28;5109770;27;45534;-74
2022/01/11 11:00:54;;;;;;;;;66.50;48.25;;;;;6.62;68.48;103022.28;5117889;27;46527;-74
2022/01/11 11:03:24;;;;;;;;;60.50;41.50;;;;;6.81;68.51;103027.81;5092717;27;45405;-74
2022/01/11 11:05:51;;;;;;;;;62.00;47.25;;;;;6.94;68.41;103032.13;5112601;27;45547;-75
2022/01/11 11:08:20;;;;;;;;;61.75;46.50;;;;;7.06;68.17;103027.63;5094262;27;45588;-74
2022/01/11 11:11:27;;;;;;;;;61.50;46.75;;;;;7.03;67.64;103010.75;5096697;27;47313;-74
2022/01/11 11:13:54;;;;;;;;;69.00;46.75;;;;;7.32;67.68;103030.91;5114912;27;45623;-78
2022/01/11 11:16:30;;;;;;;;;58.75;42.50;;;;;7.42;67.80;103042.88;5088860;27;45486;-75
2022/01/11 11:19:00;;;;;;;;;59.00;46.50;;;;;7.46;67.74;103026.47;5095445;27;45464;-75